Terminal Aerodrome Forecast
Issued by NWS Pittsburgh, PA

Current Version | Previous Version | Graphics & Text | Print | Product List | Glossary On
Versions: 1 2 3 4 5 6 7 8 9 10 11 12 13 14 15 16 17 18 19 20 21 22 23 24 25 26 27 28 29 30 31 32 33 34 35 36 37 38 39
000
FTUS41 KPBZ 202326
TAFPIT
TAF
KPIT 202326Z 2100/2206 18008KT P6SM BKN250
     FM210300 19005KT P6SM BKN250 WS020/22045KT
     FM211400 22012G22KT P6SM VCSH BKN035
     FM211700 30012G22KT 5SM -SHRA OVC015
     FM212100 33010KT 5SM -SHRA OVC015
     FM220000 35008KT P6SM -SHRA OVC035=

USA.gov is the U.S. government's official web portal to all federal, state and local government web resources and services.